Time;durP1;ratioP1;P1;durP2;ratioP2;P2;SDS_P1;SDS_P2;PMS_P1;PMS_P2;Temp;Humidity;BMP_temperature;BMP_pressure;BME280_temperature;BME280_humidity;BME280_pressure;Samples;Min_cycle;Max_cycle;Signal;HPM_P1;HPM_P2
2023/01/09 00:00:46;;;;;;;3.60;3.33;;;;;;;;;;4953530;28;20633;-80
2023/01/09 00:03:11;;;;;;;4.20;3.80;;;;;;;;;;4965599;28;20231;-79
2023/01/09 00:05:37;;;;;;;3.60;3.40;;;;;;;;;;4968715;28;20223;-77
2023/01/09 00:08:03;;;;;;;3.80;3.50;;;;;;;;;;4967453;28;20381;-77
2023/01/09 00:10:30;;;;;;;3.37;3.03;;;;;;;;;;4969604;28;20214;-76
2023/01/09 00:12:58;;;;;;;3.17;2.87;;;;;;;;;;4966607;28;20235;-77
2023/01/09 00:15:24;;;;;;;3.80;3.50;;;;;;;;;;4969062;28;20222;-76
2023/01/09 00:17:49;;;;;;;3.03;2.83;;;;;;;;;;4960819;28;20230;-76
2023/01/09 00:20:17;;;;;;;3.80;3.50;;;;;;;;;;4967775;28;20222;-77
2023/01/09 00:22:45;;;;;;;3.60;3.30;;;;;;;;;;4976431;28;20227;-78
2023/01/09 00:25:13;;;;;;;3.40;3.20;;;;;;;;;;4977087;28;20233;-77
2023/01/09 00:27:41;;;;;;;3.60;3.30;;;;;;;;;;4967239;28;20226;-77
2023/01/09 00:30:08;;;;;;;3.77;3.47;;;;;;;;;;4970171;28;20226;-76
2023/01/09 00:32:33;;;;;;;3.67;3.37;;;;;;;;;;4941737;28;20230;-77
2023/01/09 00:35:01;;;;;;;3.80;3.50;;;;;;;;;;4975377;28;20235;-78
2023/01/09 00:37:27;;;;;;;3.73;3.43;;;;;;;;;;4971477;28;20226;-81
2023/01/09 00:39:55;;;;;;;3.77;3.47;;;;;;;;;;4962570;28;20242;-77
2023/01/09 00:42:24;;;;;;;4.03;3.53;;;;;;;;;;4962942;28;20238;-79
2023/01/09 00:44:52;;;;;;;3.93;3.63;;;;;;;;;;4939005;28;20234;-78
2023/01/09 00:47:25;;;;;;;3.43;3.20;;;;;;;;;;4934658;28;20225;-78
2023/01/09 00:49:50;;;;;;;3.83;3.47;;;;;;;;;;4970188;28;20294;-78
2023/01/09 00:52:18;;;;;;;3.33;3.07;;;;;;;;;;4961420;28;20302;-80
2023/01/09 00:54:43;;;;;;;3.67;3.37;;;;;;;;;;4946802;28;20362;-79
2023/01/09 00:57:10;;;;;;;3.80;3.50;;;;;;;;;;4962579;28;20223;-79
2023/01/09 00:59:40;;;;;;;3.50;3.23;;;;;;;;;;4962544;28;20664;-80
2023/01/09 01:02:08;;;;;;;3.50;3.20;;;;;;;;;;4972552;28;20289;-78
2023/01/09 01:10:06;;;;;;;4.27;3.20;;;;;;;;;;4971776;28;20281;-78
2023/01/09 01:12:32;;;;;;;3.37;3.13;;;;;;;;;;4960376;28;20234;-80
2023/01/09 01:14:57;;;;;;;3.60;3.30;;;;;;;;;;4958868;28;20219;-80
2023/01/09 01:17:27;;;;;;;4.10;3.10;;;;;;;;;;4959363;28;20272;-80
2023/01/09 01:19:58;;;;;;;3.07;2.87;;;;;;;;;;4952421;28;20223;-80
2023/01/09 01:22:26;;;;;;;3.20;2.90;;;;;;;;;;4957092;28;21014;-80
2023/01/09 01:24:51;;;;;;;3.27;2.97;;;;;;;;;;4940851;28;20222;-80
2023/01/09 01:27:17;;;;;;;2.97;2.73;;;;;;;;;;4940917;28;20257;-80
2023/01/09 01:29:43;;;;;;;3.77;3.07;;;;;;;;;;4957067;28;20222;-79
2023/01/09 01:32:08;;;;;;;3.50;3.20;;;;;;;;;;4969254;28;20708;-79
2023/01/09 01:34:33;;;;;;;5.80;3.10;;;;;;;;;;4966572;28;20226;-80
2023/01/09 01:37:01;;;;;;;2.90;2.70;;;;;;;;;;4963340;28;20230;-80
2023/01/09 01:39:29;;;;;;;2.93;2.73;;;;;;;;;;4955117;28;21646;-80
2023/01/09 01:41:55;;;;;;;2.77;2.50;;;;;;;;;;4968974;28;20244;-79
2023/01/09 01:44:55;;;;;;;2.87;2.57;;;;;;;;;;4964342;28;20218;-80
2023/01/09 01:47:32;;;;;;;3.77;2.70;;;;;;;;;;4961229;28;20222;-79
2023/01/09 01:49:58;;;;;;;2.60;2.40;;;;;;;;;;4956891;28;20233;-79
2023/01/09 01:52:23;;;;;;;3.80;2.50;;;;;;;;;;4959362;28;20257;-78
2023/01/09 01:54:51;;;;;;;2.33;2.20;;;;;;;;;;4932208;28;20229;-79
2023/01/09 01:57:16;;;;;;;2.47;2.27;;;;;;;;;;4965347;28;20250;-77
2023/01/09 01:59:49;;;;;;;2.40;2.20;;;;;;;;;;4965148;28;20306;-77
2023/01/09 02:02:22;;;;;;;2.27;2.07;;;;;;;;;;4974640;28;20217;-77
2023/01/09 02:04:47;;;;;;;3.47;2.33;;;;;;;;;;4968621;28;20230;-78
2023/01/09 02:07:15;;;;;;;2.13;2.03;;;;;;;;;;4964300;28;20289;-80
2023/01/09 02:09:41;;;;;;;2.40;2.20;;;;;;;;;;4955779;28;20218;-79
2023/01/09 02:12:19;;;;;;;2.27;2.07;;;;;;;;;;4955667;28;20648;-79
2023/01/09 02:14:47;;;;;;;3.20;2.10;;;;;;;;;;4983547;28;20221;-79
2023/01/09 02:17:20;;;;;;;2.10;2.00;;;;;;;;;;4958290;28;20305;-80
2023/01/09 02:19:54;;;;;;;3.30;2.33;;;;;;;;;;4980345;28;20226;-78
2023/01/09 02:22:31;;;;;;;1.93;1.83;;;;;;;;;;4968353;28;20324;-79
2023/01/09 02:25:14;;;;;;;2.47;2.27;;;;;;;;;;4962782;28;20222;-78
2023/01/09 02:28:24;;;;;;;6.90;2.33;;;;;;;;;;4959591;28;20218;-77
2023/01/09 02:30:58;;;;;;;3.73;2.53;;;;;;;;;;4921367;29;20342;-78
2023/01/09 02:33:36;;;;;;;2.33;2.13;;;;;;;;;;4923521;29;20632;-79
2023/01/09 02:36:24;;;;;;;2.00;1.80;;;;;;;;;;4928412;28;20286;-79
2023/01/09 02:39:25;;;;;;;2.80;1.80;;;;;;;;;;4979440;28;20907;-78
2023/01/09 02:41:59;;;;;;;2.27;2.00;;;;;;;;;;4952394;28;20219;-78
2023/01/09 02:44:29;;;;;;;2.20;1.90;;;;;;;;;;4978440;28;20733;-77
2023/01/09 02:47:06;;;;;;;2.37;2.03;;;;;;;;;;4978183;28;20699;-77
2023/01/09 02:49:33;;;;;;;2.37;2.17;;;;;;;;;;4958282;28;20229;-78
2023/01/09 02:52:36;;;;;;;2.20;2.00;;;;;;;;;;4970925;28;20246;-77
2023/01/09 02:55:09;;;;;;;2.00;1.70;;;;;;;;;;4975269;28;20222;-78
2023/01/09 02:57:37;;;;;;;3.20;2.17;;;;;;;;;;4956029;28;20231;-78
2023/01/09 03:00:08;;;;;;;1.83;1.73;;;;;;;;;;4960504;28;20242;-79
2023/01/09 03:02:46;;;;;;;3.03;1.90;;;;;;;;;;4951469;28;20524;-79
2023/01/09 03:05:14;;;;;;;1.90;1.80;;;;;;;;;;4945873;28;20298;-78
2023/01/09 03:07:47;;;;;;;1.90;1.80;;;;;;;;;;4947486;28;20281;-79
2023/01/09 03:10:19;;;;;;;2.13;2.03;;;;;;;;;;4936732;28;20300;-77
2023/01/09 03:12:50;;;;;;;1.67;1.57;;;;;;;;;;4948028;28;20773;-77
2023/01/09 03:15:16;;;;;;;1.70;1.60;;;;;;;;;;4935342;28;20223;-78
2023/01/09 03:17:45;;;;;;;2.07;1.87;;;;;;;;;;4925552;28;20273;-78
2023/01/09 03:20:14;;;;;;;2.10;1.90;;;;;;;;;;4933177;28;20226;-77
2023/01/09 03:22:55;;;;;;;1.80;1.70;;;;;;;;;;4947936;28;20234;-79
2023/01/09 03:25:20;;;;;;;1.63;1.53;;;;;;;;;;4962849;28;20234;-78
2023/01/09 03:27:46;;;;;;;2.13;1.93;;;;;;;;;;4934892;28;20299;-77
2023/01/09 03:30:14;;;;;;;2.47;1.73;;;;;;;;;;4946089;28;20226;-77
2023/01/09 03:32:40;;;;;;;2.13;1.93;;;;;;;;;;4945749;28;20265;-78
2023/01/09 03:35:06;;;;;;;5.00;1.83;;;;;;;;;;4925499;28;20257;-78
2023/01/09 03:37:36;;;;;;;3.50;1.87;;;;;;;;;;4938961;28;20231;-78
2023/01/09 03:40:03;;;;;;;1.70;1.60;;;;;;;;;;4953178;28;20684;-78
2023/01/09 03:42:29;;;;;;;1.90;1.70;;;;;;;;;;4925631;28;20231;-78
2023/01/09 03:44:54;;;;;;;1.83;1.63;;;;;;;;;;4926672;28;20585;-78
2023/01/09 03:47:20;;;;;;;1.87;1.77;;;;;;;;;;4940205;28;20231;-78
2023/01/09 03:49:45;;;;;;;2.20;1.70;;;;;;;;;;4951424;28;20239;-79
2023/01/09 03:52:12;;;;;;;1.90;1.80;;;;;;;;;;4948773;28;20225;-78
2023/01/09 03:54:38;;;;;;;3.57;2.13;;;;;;;;;;4942417;28;20227;-78
2023/01/09 03:57:11;;;;;;;2.20;1.80;;;;;;;;;;4939309;28;20285;-78
2023/01/09 03:59:36;;;;;;;2.03;1.90;;;;;;;;;;4949233;28;20594;-78
2023/01/09 04:02:02;;;;;;;2.40;2.20;;;;;;;;;;4942302;28;20229;-79
2023/01/09 04:04:30;;;;;;;2.10;1.90;;;;;;;;;;4925829;28;20309;-77
2023/01/09 04:06:55;;;;;;;3.20;2.37;;;;;;;;;;4950909;28;20348;-81
2023/01/09 04:09:23;;;;;;;2.60;2.10;;;;;;;;;;4919882;28;20233;-78
2023/01/09 04:11:48;;;;;;;2.23;1.97;;;;;;;;;;4934319;28;20239;-78
2023/01/09 04:14:17;;;;;;;2.20;2.00;;;;;;;;;;4947735;28;20257;-77
2023/01/09 04:16:42;;;;;;;1.90;1.80;;;;;;;;;;4930789;28;20233;-78
2023/01/09 04:19:12;;;;;;;3.47;2.30;;;;;;;;;;4926591;28;20219;-79
2023/01/09 04:21:40;;;;;;;2.10;1.90;;;;;;;;;;4926995;28;20222;-78
2023/01/09 04:24:06;;;;;;;3.00;1.90;;;;;;;;;;4924046;28;20669;-79
2023/01/09 04:26:34;;;;;;;2.27;2.03;;;;;;;;;;4933593;28;20243;-79
2023/01/09 04:29:02;;;;;;;1.90;1.80;;;;;;;;;;4934884;28;20306;-79
2023/01/09 04:31:27;;;;;;;5.97;4.67;;;;;;;;;;4942527;28;20231;-78
2023/01/09 04:33:53;;;;;;;5.20;4.80;;;;;;;;;;4962429;28;20613;-78
2023/01/09 04:36:20;;;;;;;1.70;1.60;;;;;;;;;;4936294;28;20254;-80
2023/01/09 04:38:50;;;;;;;4.50;4.17;;;;;;;;;;4923365;28;20238;-79
2023/01/09 04:46:47;;;;;;;5.00;3.00;;;;;;;;;;4974210;28;20232;-84
2023/01/09 04:49:16;;;;;;;7.97;5.47;;;;;;;;;;4931822;28;20230;-87
2023/01/09 04:51:41;;;;;;;1.50;1.40;;;;;;;;;;4936440;28;20240;-88
2023/01/09 04:54:07;;;;;;;11.23;10.07;;;;;;;;;;4952507;28;20218;-86
2023/01/09 04:56:34;;;;;;;2.90;2.53;;;;;;;;;;4938521;28;20221;-87
2023/01/09 04:59:05;;;;;;;4.70;2.63;;;;;;;;;;4946360;28;20241;-86
2023/01/09 05:01:31;;;;;;;3.23;2.60;;;;;;;;;;4950385;28;20229;-85
2023/01/09 05:03:59;;;;;;;3.97;3.27;;;;;;;;;;4960272;28;20283;-87
2023/01/09 05:06:25;;;;;;;1.37;1.27;;;;;;;;;;4946914;28;20293;-86
2023/01/09 05:08:50;;;;;;;1.00;0.90;;;;;;;;;;4934198;28;20249;-88
2023/01/09 05:11:16;;;;;;;1.30;1.20;;;;;;;;;;4948150;28;20218;-87
2023/01/09 05:13:44;;;;;;;1.90;1.20;;;;;;;;;;4948625;28;20221;-87
2023/01/09 05:16:09;;;;;;;0.90;0.90;;;;;;;;;;4955819;28;20283;-86
2023/01/09 05:18:35;;;;;;;0.97;0.73;;;;;;;;;;4946783;28;20241;-85
2023/01/09 05:21:00;;;;;;;0.80;0.80;;;;;;;;;;4946566;28;20218;-85
2023/01/09 05:23:26;;;;;;;0.80;0.80;;;;;;;;;;4928850;28;20226;-86
2023/01/09 05:25:54;;;;;;;1.23;1.00;;;;;;;;;;4933397;28;20226;-85
2023/01/09 05:28:24;;;;;;;0.70;0.70;;;;;;;;;;4945951;28;20277;-86
2023/01/09 05:30:52;;;;;;;1.00;0.90;;;;;;;;;;4945356;28;20270;-87
2023/01/09 05:33:19;;;;;;;1.13;1.03;;;;;;;;;;4938624;28;20640;-86
2023/01/09 05:35:47;;;;;;;1.10;1.00;;;;;;;;;;4934296;28;20253;-85
2023/01/09 05:38:20;;;;;;;2.27;1.10;;;;;;;;;;4930217;28;20225;-87
2023/01/09 05:40:51;;;;;;;1.07;1.00;;;;;;;;;;4933893;28;20280;-85
2023/01/09 05:43:16;;;;;;;1.20;1.10;;;;;;;;;;4946354;28;20222;-84
2023/01/09 05:45:42;;;;;;;0.87;0.80;;;;;;;;;;4937999;28;20222;-86
2023/01/09 05:48:10;;;;;;;1.03;0.90;;;;;;;;;;4950742;28;20217;-84
2023/01/09 05:50:35;;;;;;;1.10;1.07;;;;;;;;;;4932921;28;20226;-85
2023/01/09 05:53:01;;;;;;;0.90;0.90;;;;;;;;;;4955814;28;20331;-86
2023/01/09 05:55:27;;;;;;;1.53;1.10;;;;;;;;;;4946644;28;20238;-85
2023/01/09 05:57:53;;;;;;;1.00;1.00;;;;;;;;;;4952739;28;20232;-86
2023/01/09 06:00:19;;;;;;;1.20;1.10;;;;;;;;;;4946408;28;20229;-85
2023/01/09 06:02:45;;;;;;;1.07;1.07;;;;;;;;;;4928178;28;20225;-84
2023/01/09 06:05:12;;;;;;;7.17;6.47;;;;;;;;;;4945052;28;20607;-85
2023/01/09 06:07:39;;;;;;;1.90;1.80;;;;;;;;;;4946158;28;20283;-85
2023/01/09 06:10:07;;;;;;;1.60;1.50;;;;;;;;;;4928543;28;20218;-85
2023/01/09 06:12:33;;;;;;;1.87;1.77;;;;;;;;;;4925617;29;20261;-86
2023/01/09 06:14:58;;;;;;;1.93;1.83;;;;;;;;;;4952460;28;20234;-85
2023/01/09 06:17:24;;;;;;;2.30;2.17;;;;;;;;;;4932756;28;20232;-87
2023/01/09 06:19:50;;;;;;;2.23;2.13;;;;;;;;;;4929709;28;20592;-86
2023/01/09 06:22:16;;;;;;;2.37;2.20;;;;;;;;;;4945794;28;20241;-86
2023/01/09 06:24:44;;;;;;;2.10;2.00;;;;;;;;;;4929908;28;20234;-83
2023/01/09 06:27:11;;;;;;;2.27;2.17;;;;;;;;;;4945460;28;20344;-84
2023/01/09 06:29:37;;;;;;;2.77;2.40;;;;;;;;;;4945045;28;20222;-86
2023/01/09 06:32:03;;;;;;;2.37;2.27;;;;;;;;;;4939715;28;20568;-85
2023/01/09 06:34:31;;;;;;;3.03;2.83;;;;;;;;;;4940488;28;20226;-86
2023/01/09 06:36:59;;;;;;;2.70;2.50;;;;;;;;;;4941679;28;20245;-86
2023/01/09 06:39:24;;;;;;;2.70;2.50;;;;;;;;;;4935340;28;20241;-86
2023/01/09 06:41:50;;;;;;;2.40;2.30;;;;;;;;;;4933999;28;20330;-88
2023/01/09 06:44:15;;;;;;;2.33;2.23;;;;;;;;;;4945644;28;20214;-85
2023/01/09 06:46:41;;;;;;;2.70;2.50;;;;;;;;;;4927874;28;20226;-86
2023/01/09 06:49:10;;;;;;;2.50;2.30;;;;;;;;;;4939075;28;20223;-86
2023/01/09 06:51:40;;;;;;;3.27;2.97;;;;;;;;;;4945306;28;20238;-86
2023/01/09 06:54:06;;;;;;;3.30;2.73;;;;;;;;;;4937466;28;20241;-87
2023/01/09 06:56:31;;;;;;;3.07;2.87;;;;;;;;;;4957699;28;20214;-85
2023/01/09 06:58:57;;;;;;;2.80;2.70;;;;;;;;;;4951549;28;20248;-87
2023/01/09 07:01:22;;;;;;;2.97;2.77;;;;;;;;;;4929991;28;20266;-86
2023/01/09 07:03:50;;;;;;;3.07;2.87;;;;;;;;;;4935606;28;20229;-85
2023/01/09 07:06:17;;;;;;;3.30;3.10;;;;;;;;;;4933721;28;20252;-86
2023/01/09 07:08:44;;;;;;;3.43;3.23;;;;;;;;;;4933189;28;20248;-87
2023/01/09 07:11:10;;;;;;;3.70;3.40;;;;;;;;;;4929087;28;20836;-86
2023/01/09 07:13:37;;;;;;;3.87;3.57;;;;;;;;;;4960573;28;20226;-86
2023/01/09 07:16:04;;;;;;;3.70;3.50;;;;;;;;;;4955449;28;20626;-85
2023/01/09 07:18:30;;;;;;;4.23;3.93;;;;;;;;;;4943638;28;20230;-86
2023/01/09 07:20:58;;;;;;;4.80;4.40;;;;;;;;;;4932792;28;20233;-86
2023/01/09 07:23:25;;;;;;;4.17;3.87;;;;;;;;;;4966166;28;20226;-86
2023/01/09 07:25:53;;;;;;;4.77;4.47;;;;;;;;;;4949679;28;20226;-86
2023/01/09 07:28:19;;;;;;;4.60;4.30;;;;;;;;;;4944760;28;20222;-86
2023/01/09 07:30:45;;;;;;;5.20;4.80;;;;;;;;;;4945880;28;20219;-85
2023/01/09 07:33:10;;;;;;;5.30;4.90;;;;;;;;;;4946398;28;20234;-85
2023/01/09 07:35:36;;;;;;;5.77;5.30;;;;;;;;;;4930086;28;20232;-87
2023/01/09 07:38:05;;;;;;;5.37;4.97;;;;;;;;;;4948154;28;20222;-86
2023/01/09 07:40:30;;;;;;;5.20;4.80;;;;;;;;;;4932257;28;20575;-85
2023/01/09 07:42:58;;;;;;;5.57;5.17;;;;;;;;;;4927831;28;20221;-85
2023/01/09 07:45:24;;;;;;;6.07;5.57;;;;;;;;;;4924248;28;20229;-88
2023/01/09 07:47:51;;;;;;;6.10;5.60;;;;;;;;;;4937532;28;20234;-86
2023/01/09 07:50:19;;;;;;;6.40;5.63;;;;;;;;;;4924562;29;20251;-87
2023/01/09 07:52:45;;;;;;;6.40;5.90;;;;;;;;;;4928195;29;20731;-86
2023/01/09 07:55:16;;;;;;;6.40;5.90;;;;;;;;;;4909096;29;20701;-87
2023/01/09 07:57:47;;;;;;;6.10;5.43;;;;;;;;;;4914176;29;20281;-87
2023/01/09 08:00:13;;;;;;;6.40;5.87;;;;;;;;;;4926061;29;20222;-87
2023/01/09 08:02:41;;;;;;;6.33;5.83;;;;;;;;;;4899598;29;20693;-88
2023/01/09 08:05:08;;;;;;;25.27;22.90;;;;;;;;;;4923260;29;20249;-87
2023/01/09 08:07:37;;;;;;;6.67;6.03;;;;;;;;;;4905826;29;20231;-87
2023/01/09 08:10:03;;;;;;;6.60;6.00;;;;;;;;;;4923959;29;20309;-87
2023/01/09 08:12:32;;;;;;;6.27;5.70;;;;;;;;;;4945463;28;20577;-87
2023/01/09 08:15:01;;;;;;;7.23;6.33;;;;;;;;;;4948329;28;20245;-88
2023/01/09 08:17:26;;;;;;;7.53;6.73;;;;;;;;;;4945489;28;20752;-86
2023/01/09 08:19:52;;;;;;;7.17;6.47;;;;;;;;;;4926731;28;20236;-85
2023/01/09 08:22:19;;;;;;;6.83;6.23;;;;;;;;;;4948416;28;20320;-87
2023/01/09 08:24:47;;;;;;;7.27;6.57;;;;;;;;;;4943053;28;20280;-84
2023/01/09 08:27:16;;;;;;;6.57;5.97;;;;;;;;;;4941983;29;20231;-87
2023/01/09 08:29:41;;;;;;;6.20;5.60;;;;;;;;;;4953952;29;20211;-88
2023/01/09 08:32:07;;;;;;;11.60;8.90;;;;;;;;;;4944440;28;20229;-86
2023/01/09 08:34:44;;;;;;;10.87;9.77;;;;;;;;;;4943575;28;20234;-87
2023/01/09 08:37:13;;;;;;;10.93;9.63;;;;;;;;;;4916610;28;20230;-86
2023/01/09 08:39:41;;;;;;;6.70;6.13;;;;;;;;;;4928645;28;20242;-86
2023/01/09 08:47:35;;;;;;;32.80;24.73;;;;;;;;;;4956788;28;20226;-85
2023/01/09 08:50:01;;;;;;;8.77;8.00;;;;;;;;;;4933498;28;20238;-86
2023/01/09 08:52:29;;;;;;;7.27;6.20;;;;;;;;;;4944754;28;20289;-86
2023/01/09 08:54:57;;;;;;;7.07;6.37;;;;;;;;;;4924996;29;20297;-85
2023/01/09 08:57:23;;;;;;;5.50;5.07;;;;;;;;;;4958776;28;20677;-86
2023/01/09 08:59:48;;;;;;;7.93;5.67;;;;;;;;;;4935820;28;20228;-85
2023/01/09 09:02:17;;;;;;;7.73;5.10;;;;;;;;;;4924819;28;20232;-84
2023/01/09 09:04:42;;;;;;;6.40;5.70;;;;;;;;;;4944068;28;20226;-83
2023/01/09 09:07:10;;;;;;;5.20;4.80;;;;;;;;;;4958833;28;20280;-87
2023/01/09 09:09:36;;;;;;;6.77;5.20;;;;;;;;;;4929727;28;20237;-87
2023/01/09 09:12:01;;;;;;;8.83;5.13;;;;;;;;;;4941820;28;20230;-86
2023/01/09 09:17:11;;;;;;;9.07;5.50;;;;;;;;;;4962192;28;20226;-86
2023/01/09 09:19:38;;;;;;;6.40;5.17;;;;;;;;;;4942558;28;20217;-85
2023/01/09 09:22:07;;;;;;;5.40;4.90;;;;;;;;;;4953224;28;20217;-86
2023/01/09 09:24:34;;;;;;;4.70;4.30;;;;;;;;;;4919293;28;20235;-85
2023/01/09 09:27:00;;;;;;;6.50;4.93;;;;;;;;;;4924168;29;20365;-85
2023/01/09 09:29:25;;;;;;;5.53;4.90;;;;;;;;;;4927698;28;20847;-82
2023/01/09 09:31:51;;;;;;;7.20;4.87;;;;;;;;;;4945513;28;20308;-86
2023/01/09 09:34:17;;;;;;;7.97;5.13;;;;;;;;;;4958986;28;20226;-86
2023/01/09 09:36:43;;;;;;;6.00;5.43;;;;;;;;;;4941287;28;20250;-85
2023/01/09 09:39:12;;;;;;;18.37;15.43;;;;;;;;;;4932694;28;20237;-83
2023/01/09 09:45:16;;;;;;;8.57;5.87;;;;;;;;;;4969166;28;20234;-87
2023/01/09 09:47:57;;;;;;;7.10;5.40;;;;;;;;;;4967193;28;20228;-84
2023/01/09 09:50:32;;;;;;;7.13;5.30;;;;;;;;;;4956407;28;20226;-86
2023/01/09 09:53:20;;;;;;;8.77;5.47;;;;;;;;;;4957938;28;20233;-85
2023/01/09 09:55:48;;;;;;;8.63;6.57;;;;;;;;;;4957504;28;20233;-87
2023/01/09 09:58:24;;;;;;;6.50;5.07;;;;;;;;;;4925249;29;20691;-86
2023/01/09 10:00:50;;;;;;;5.70;5.20;;;;;;;;;;4922727;29;20261;-86
2023/01/09 10:03:41;;;;;;;5.93;5.00;;;;;;;;;;4894783;29;20897;-86
2023/01/09 10:06:27;;;;;;;6.27;5.20;;;;;;;;;;4938499;29;20233;-85
2023/01/09 10:09:05;;;;;;;5.80;5.13;;;;;;;;;;4926208;28;20218;-86
2023/01/09 10:11:41;;;;;;;6.33;5.40;;;;;;;;;;4968479;28;20265;-86
2023/01/09 10:14:09;;;;;;;5.43;5.03;;;;;;;;;;4926021;28;20827;-87
2023/01/09 10:16:59;;;;;;;6.63;4.60;;;;;;;;;;4909492;28;20230;-87
2023/01/09 10:19:52;;;;;;;6.03;5.17;;;;;;;;;;4973201;28;20221;-87
2023/01/09 10:22:36;;;;;;;5.27;4.80;;;;;;;;;;4956159;28;20213;-87
2023/01/09 10:25:30;;;;;;;8.43;7.57;;;;;;;;;;4960289;28;20233;-87
2023/01/09 10:27:56;;;;;;;5.27;4.80;;;;;;;;;;4930899;29;20230;-87
2023/01/09 10:30:42;;;;;;;5.70;5.10;;;;;;;;;;4975153;28;20232;-87
2023/01/09 10:33:35;;;;;;;6.63;5.03;;;;;;;;;;4905305;29;20246;-87
2023/01/09 10:36:01;;;;;;;5.83;5.27;;;;;;;;;;4960681;28;20230;-84
2023/01/09 10:38:34;;;;;;;5.30;4.70;;;;;;;;;;4968682;28;20244;-85
2023/01/09 10:41:17;;;;;;;5.20;4.70;;;;;;;;;;4931533;28;20226;-86
2023/01/09 10:43:56;;;;;;;6.53;5.47;;;;;;;;;;4921251;28;20586;-87
2023/01/09 10:46:27;;;;;;;8.20;5.13;;;;;;;;;;4951230;28;20238;-86
2023/01/09 10:48:58;;;;;;;5.73;4.53;;;;;;;;;;4930685;28;20226;-85
2023/01/09 10:51:48;;;;;;;9.50;5.40;;;;;;;;;;4931581;28;20219;-87
2023/01/09 10:54:15;;;;;;;5.57;5.00;;;;;;;;;;4947229;28;20474;-88
2023/01/09 10:56:45;;;;;;;8.73;4.80;;;;;;;;;;4929840;29;20225;-87
2023/01/09 10:59:10;;;;;;;17.80;9.80;;;;;;;;;;4948410;28;20233;-88
2023/01/09 11:01:38;;;;;;;19.67;11.90;;;;;;;;;;4947186;28;20222;-88
2023/01/09 11:04:27;;;;;;;10.70;7.60;;;;;;;;;;4958741;28;20230;-85
2023/01/09 11:06:59;;;;;;;4.30;3.73;;;;;;;;;;4956326;28;20222;-87
2023/01/09 11:09:24;;;;;;;5.93;3.63;;;;;;;;;;4962436;28;20230;-86
2023/01/09 11:11:50;;;;;;;4.83;3.60;;;;;;;;;;4931543;29;20655;-87
2023/01/09 11:14:17;;;;;;;4.70;3.50;;;;;;;;;;4944214;28;20230;-87
2023/01/09 11:16:50;;;;;;;4.43;3.53;;;;;;;;;;4952815;28;20226;-87
2023/01/09 11:19:16;;;;;;;8.83;3.83;;;;;;;;;;4931890;28;20218;-86
2023/01/09 11:21:46;;;;;;;3.77;3.30;;;;;;;;;;4947560;28;20229;-87
2023/01/09 11:24:14;;;;;;;5.67;3.50;;;;;;;;;;4929620;28;20743;-86
2023/01/09 11:26:40;;;;;;;5.47;3.40;;;;;;;;;;4980952;28;20225;-85
2023/01/09 11:29:12;;;;;;;5.20;3.80;;;;;;;;;;4978522;28;20212;-84
2023/01/09 11:31:45;;;;;;;3.97;3.50;;;;;;;;;;4951038;28;20218;-86
2023/01/09 11:34:30;;;;;;;5.80;3.47;;;;;;;;;;4958865;28;20226;-85
2023/01/09 11:37:12;;;;;;;3.33;2.67;;;;;;;;;;4963699;28;20737;-86
2023/01/09 11:39:40;;;;;;;4.67;3.07;;;;;;;;;;4944563;29;20218;-86
2023/01/09 11:45:31;;;;;;;4.23;2.50;;;;;;;;;;4924974;29;20219;-84
2023/01/09 11:48:00;;;;;;;3.37;2.60;;;;;;;;;;4930386;29;20227;-85
2023/01/09 11:50:27;;;;;;;5.47;3.07;;;;;;;;;;4927746;29;20295;-84
2023/01/09 11:53:18;;;;;;;3.97;2.93;;;;;;;;;;4960613;29;20217;-86
2023/01/09 11:55:49;;;;;;;2.90;2.03;;;;;;;;;;4943404;29;20641;-86
2023/01/09 11:58:16;;;;;;;4.87;2.67;;;;;;;;;;4934788;29;20199;-86
2023/01/09 12:00:47;;;;;;;2.87;2.13;;;;;;;;;;4938090;29;20219;-85
2023/01/09 12:03:25;;;;;;;3.10;2.43;;;;;;;;;;4976055;28;20209;-85
2023/01/09 12:06:02;;;;;;;4.20;2.40;;;;;;;;;;4947904;28;20422;-86
2023/01/09 12:08:56;;;;;;;3.03;2.10;;;;;;;;;;4946541;28;20214;-86
2023/01/09 12:11:37;;;;;;;2.73;1.90;;;;;;;;;;4970031;28;20284;-86
2023/01/09 12:14:13;;;;;;;5.00;2.63;;;;;;;;;;4944667;28;20222;-85
2023/01/09 12:17:15;;;;;;;2.63;1.87;;;;;;;;;;4966412;28;20227;-86
2023/01/09 12:19:46;;;;;;;2.57;1.80;;;;;;;;;;4965305;28;20226;-87
2023/01/09 12:22:27;;;;;;;3.70;1.97;;;;;;;;;;4983746;28;20220;-87
2023/01/09 12:25:17;;;;;;;3.20;1.63;;;;;;;;;;4953590;28;20341;-86
2023/01/09 12:28:07;;;;;;;2.17;1.53;;;;;;;;;;4991267;28;20488;-86
2023/01/09 12:30:47;;;;;;;3.47;1.67;;;;;;;;;;4976988;28;20226;-85
2023/01/09 12:33:37;;;;;;;5.43;1.77;;;;;;;;;;4951222;28;20234;-87
2023/01/09 12:36:14;;;;;;;2.70;1.40;;;;;;;;;;4956062;28;20412;-87
2023/01/09 12:38:58;;;;;;;3.10;1.60;;;;;;;;;;4942463;29;20285;-87
2023/01/09 12:41:23;;;;;;;4.07;1.70;;;;;;;;;;4953103;28;20249;-86
2023/01/09 12:44:16;;;;;;;1.67;1.20;;;;;;;;;;4956449;28;20227;-87
2023/01/09 12:47:23;;;;;;;1.87;1.43;;;;;;;;;;4962840;28;20303;-84
2023/01/09 12:50:04;;;;;;;2.80;1.20;;;;;;;;;;4931221;28;20245;-86
2023/01/09 12:52:35;;;;;;;2.37;1.80;;;;;;;;;;4952216;28;20234;-86
2023/01/09 12:55:19;;;;;;;4.87;1.70;;;;;;;;;;4927298;29;20281;-86
2023/01/09 12:57:50;;;;;;;2.47;1.57;;;;;;;;;;4949713;28;20246;-86
2023/01/09 13:00:20;;;;;;;2.67;1.20;;;;;;;;;;4932921;28;20230;-85
2023/01/09 13:03:03;;;;;;;2.93;1.50;;;;;;;;;;4948161;28;20581;-86
2023/01/09 13:05:34;;;;;;;2.10;1.50;;;;;;;;;;4974514;28;20253;-87
2023/01/09 13:08:19;;;;;;;1.80;1.47;;;;;;;;;;4926759;28;20229;-87
2023/01/09 13:10:56;;;;;;;2.63;1.50;;;;;;;;;;4962768;28;20224;-87
2023/01/09 13:13:37;;;;;;;1.63;1.40;;;;;;;;;;4943046;28;20234;-87
2023/01/09 13:16:08;;;;;;;2.70;1.60;;;;;;;;;;4929416;28;20749;-86
2023/01/09 13:18:50;;;;;;;3.07;1.60;;;;;;;;;;4939548;28;20250;-87
2023/01/09 13:21:15;;;;;;;2.73;1.83;;;;;;;;;;4940083;28;20301;-86
2023/01/09 13:23:56;;;;;;;3.70;1.70;;;;;;;;;;4934787;29;20219;-87
2023/01/09 13:26:30;;;;;;;2.83;1.40;;;;;;;;;;4957544;28;20590;-87
2023/01/09 13:29:21;;;;;;;2.90;1.60;;;;;;;;;;4943477;28;20240;-87
2023/01/09 13:32:18;;;;;;;1.93;1.60;;;;;;;;;;4936390;28;20249;-87
2023/01/09 13:34:45;;;;;;;3.37;1.43;;;;;;;;;;4962563;28;20233;-83
2023/01/09 13:37:28;;;;;;;2.00;1.13;;;;;;;;;;4945473;28;20238;-86
2023/01/09 13:40:17;;;;;;;3.43;1.20;;;;;;;;;;4949222;29;20286;-86
2023/01/09 13:42:45;;;;;;;1.23;0.93;;;;;;;;;;4958313;28;20222;-84
2023/01/09 13:45:32;;;;;;;1.37;1.00;;;;;;;;;;4949111;28;20242;-84
2023/01/09 13:48:08;;;;;;;1.87;1.40;;;;;;;;;;4952181;28;20258;-87
2023/01/09 13:50:45;;;;;;;2.63;1.27;;;;;;;;;;4959628;28;20245;-88
2023/01/09 13:53:16;;;;;;;3.00;1.37;;;;;;;;;;4937614;28;20245;-86
2023/01/09 13:56:04;;;;;;;2.87;1.50;;;;;;;;;;4953138;28;20245;-87
2023/01/09 13:58:37;;;;;;;2.13;1.40;;;;;;;;;;4959014;28;20230;-87
2023/01/09 14:01:39;;;;;;;1.40;1.20;;;;;;;;;;4943256;28;20287;-87
2023/01/09 14:04:10;;;;;;;1.60;1.10;;;;;;;;;;4881633;29;20243;-86
2023/01/09 14:06:38;;;;;;;1.43;1.10;;;;;;;;;;4946049;28;20230;-85
2023/01/09 14:09:08;;;;;;;1.90;1.40;;;;;;;;;;4929496;28;20233;-87
2023/01/09 14:11:34;;;;;;;4.50;1.67;;;;;;;;;;4950041;28;20238;-87
2023/01/09 14:14:01;;;;;;;2.40;1.80;;;;;;;;;;4958362;28;20275;-87
2023/01/09 14:16:27;;;;;;;4.00;1.43;;;;;;;;;;4934389;28;20249;-88
2023/01/09 14:19:02;;;;;;;2.30;1.53;;;;;;;;;;4928400;28;20230;-87
2023/01/09 14:21:42;;;;;;;4.90;1.50;;;;;;;;;;4929065;28;20279;-88
2023/01/09 14:24:10;;;;;;;2.40;1.30;;;;;;;;;;4934662;28;20214;-88
2023/01/09 14:26:44;;;;;;;3.97;1.53;;;;;;;;;;4927172;28;20293;-86
2023/01/09 14:29:30;;;;;;;12.37;8.63;;;;;;;;;;4937466;28;20325;-87
2023/01/09 14:32:21;;;;;;;5.60;3.60;;;;;;;;;;4974984;28;20257;-87
2023/01/09 14:34:52;;;;;;;3.87;1.70;;;;;;;;;;4960600;28;20258;-88
2023/01/09 14:37:20;;;;;;;2.07;1.47;;;;;;;;;;4941959;28;20643;-86
2023/01/09 14:39:48;;;;;;;2.10;1.33;;;;;;;;;;4944269;28;20252;-86
2023/01/09 14:42:21;;;;;;;5.77;2.30;;;;;;;;;;4926002;28;20233;-87
2023/01/09 14:44:50;;;;;;;1.83;1.67;;;;;;;;;;4927919;28;20601;-86
2023/01/09 14:47:58;;;;;;;1.97;1.63;;;;;;;;;;4974422;28;20237;-88
2023/01/09 14:50:47;;;;;;;2.53;1.70;;;;;;;;;;4937313;28;20582;-87
2023/01/09 14:53:35;;;;;;;3.37;2.50;;;;;;;;;;4936889;28;20245;-87
2023/01/09 14:56:05;;;;;;;3.17;1.97;;;;;;;;;;4960134;28;20617;-86
2023/01/09 14:58:36;;;;;;;2.77;1.50;;;;;;;;;;4926932;28;20222;-87
2023/01/09 15:01:15;;;;;;;2.63;1.50;;;;;;;;;;4943999;28;20248;-87
2023/01/09 15:03:50;;;;;;;2.83;1.80;;;;;;;;;;4940264;29;20219;-88
2023/01/09 15:06:18;;;;;;;1.80;1.70;;;;;;;;;;4943895;28;20230;-88
2023/01/09 15:08:44;;;;;;;4.20;1.80;;;;;;;;;;4933566;28;20313;-87
2023/01/09 15:11:10;;;;;;;2.70;1.50;;;;;;;;;;4941011;28;20214;-87
2023/01/09 15:13:45;;;;;;;1.73;1.50;;;;;;;;;;4963990;28;20233;-89
2023/01/09 15:16:21;;;;;;;4.17;1.80;;;;;;;;;;4943023;28;20237;-89
2023/01/09 15:18:52;;;;;;;4.70;1.90;;;;;;;;;;4950531;28;20214;-88
2023/01/09 15:21:22;;;;;;;6.07;2.00;;;;;;;;;;4951046;28;20433;-88
2023/01/09 15:23:48;;;;;;;2.13;1.77;;;;;;;;;;4982118;28;20218;-87
2023/01/09 15:26:25;;;;;;;2.90;2.20;;;;;;;;;;4949232;28;20278;-89
2023/01/09 15:28:52;;;;;;;2.30;2.10;;;;;;;;;;4969427;28;20222;-87
2023/01/09 15:31:19;;;;;;;2.60;2.40;;;;;;;;;;4965358;28;20214;-87
2023/01/09 15:33:50;;;;;;;5.30;2.20;;;;;;;;;;4950019;28;20245;-85